sensor_id;sensor_type;location;lat;lon;timestamp;P1;durP1;ratioP1;P2;durP2;ratioP2
59074;SDS011;44860;53.020;6.738;2023-05-10T00:01:22;9.35;;;8.45;;
59074;SDS011;44860;53.020;6.738;2023-05-10T00:03:48;10.93;;;8.70;;
59074;SDS011;44860;53.020;6.738;2023-05-10T00:06:14;10.15;;;9.23;;
59074;SDS011;44860;53.020;6.738;2023-05-10T00:08:40;10.07;;;8.85;;
59074;SDS011;44860;53.020;6.738;2023-05-10T00:11:05;9.95;;;9.05;;
59074;SDS011;44860;53.020;6.738;2023-05-10T00:13:31;10.30;;;9.30;;
59074;SDS011;44860;53.020;6.738;2023-05-10T00:15:57;10.68;;;9.68;;
59074;SDS011;44860;53.020;6.738;2023-05-10T00:18:23;11.15;;;10.15;;
59074;SDS011;44860;53.020;6.738;2023-05-10T00:20:48;11.02;;;9.93;;
59074;SDS011;44860;53.020;6.738;2023-05-10T00:23:14;11.10;;;10.10;;
59074;SDS011;44860;53.020;6.738;2023-05-10T00:25:40;10.68;;;9.57;;
59074;SDS011;44860;53.020;6.738;2023-05-10T00:28:05;11.50;;;10.40;;
59074;SDS011;44860;53.020;6.738;2023-05-10T00:30:31;11.38;;;10.27;;
59074;SDS011;44860;53.020;6.738;2023-05-10T00:32:57;11.27;;;10.18;;
59074;SDS011;44860;53.020;6.738;2023-05-10T00:35:22;11.00;;;9.90;;
59074;SDS011;44860;53.020;6.738;2023-05-10T00:37:48;11.10;;;10.00;;
59074;SDS011;44860;53.020;6.738;2023-05-10T00:40:14;11.55;;;10.38;;
59074;SDS011;44860;53.020;6.738;2023-05-10T00:42:40;11.40;;;9.82;;
59074;SDS011;44860;53.020;6.738;2023-05-10T00:45:05;11.23;;;9.85;;
59074;SDS011;44860;53.020;6.738;2023-05-10T00:47:32;11.15;;;10.00;;
59074;SDS011;44860;53.020;6.738;2023-05-10T00:49:58;10.27;;;9.27;;
59074;SDS011;44860;53.020;6.738;2023-05-10T00:52:25;11.55;;;9.52;;
59074;SDS011;44860;53.020;6.738;2023-05-10T00:54:52;10.00;;;9.00;;
59074;SDS011;44860;53.020;6.738;2023-05-10T00:57:18;10.57;;;9.23;;
59074;SDS011;44860;53.020;6.738;2023-05-10T00:59:44;10.68;;;9.48;;
59074;SDS011;44860;53.020;6.738;2023-05-10T01:02:10;11.20;;;10.02;;
59074;SDS011;44860;53.020;6.738;2023-05-10T01:04:36;12.57;;;10.25;;
59074;SDS011;44860;53.020;6.738;2023-05-10T01:07:03;10.77;;;9.63;;
59074;SDS011;44860;53.020;6.738;2023-05-10T01:09:28;9.75;;;8.75;;
59074;SDS011;44860;53.020;6.738;2023-05-10T01:11:54;9.68;;;8.65;;
59074;SDS011;44860;53.020;6.738;2023-05-10T01:14:20;11.05;;;9.95;;
59074;SDS011;44860;53.020;6.738;2023-05-10T01:16:46;12.00;;;10.50;;
59074;SDS011;44860;53.020;6.738;2023-05-10T01:19:18;11.65;;;10.55;;
59074;SDS011;44860;53.020;6.738;2023-05-10T01:33:30;10.60;;;9.50;;
59074;SDS011;44860;53.020;6.738;2023-05-10T01:44:42;10.57;;;9.38;;
59074;SDS011;44860;53.020;6.738;2023-05-10T01:47:25;12.07;;;9.60;;
59074;SDS011;44860;53.020;6.738;2023-05-10T01:49:53;10.85;;;9.68;;
59074;SDS011;44860;53.020;6.738;2023-05-10T01:52:30;10.32;;;9.23;;
59074;SDS011;44860;53.020;6.738;2023-05-10T01:55:00;10.73;;;9.23;;
59074;SDS011;44860;53.020;6.738;2023-05-10T01:57:32;10.95;;;9.85;;
59074;SDS011;44860;53.020;6.738;2023-05-10T02:00:00;10.38;;;9.07;;
59074;SDS011;44860;53.020;6.738;2023-05-10T02:02:28;10.25;;;9.15;;
59074;SDS011;44860;53.020;6.738;2023-05-10T02:04:58;11.13;;;8.90;;
59074;SDS011;44860;53.020;6.738;2023-05-10T02:07:24;11.27;;;10.00;;
59074;SDS011;44860;53.020;6.738;2023-05-10T02:09:53;10.25;;;8.85;;
59074;SDS011;44860;53.020;6.738;2023-05-10T02:12:19;11.40;;;9.60;;
59074;SDS011;44860;53.020;6.738;2023-05-10T02:14:47;10.30;;;9.20;;
59074;SDS011;44860;53.020;6.738;2023-05-10T02:17:13;10.60;;;9.48;;
59074;SDS011;44860;53.020;6.738;2023-05-10T02:19:40;12.70;;;9.88;;
59074;SDS011;44860;53.020;6.738;2023-05-10T02:22:10;11.77;;;10.48;;
59074;SDS011;44860;53.020;6.738;2023-05-10T02:24:36;11.60;;;9.90;;
59074;SDS011;44860;53.020;6.738;2023-05-10T02:27:03;11.48;;;10.27;;
59074;SDS011;44860;53.020;6.738;2023-05-10T02:29:31;13.57;;;11.23;;
59074;SDS011;44860;53.020;6.738;2023-05-10T02:31:57;11.00;;;9.77;;
59074;SDS011;44860;53.020;6.738;2023-05-10T02:34:27;13.85;;;11.30;;
59074;SDS011;44860;53.020;6.738;2023-05-10T02:36:55;12.85;;;11.15;;
59074;SDS011;44860;53.020;6.738;2023-05-10T02:39:21;13.30;;;10.98;;
59074;SDS011;44860;53.020;6.738;2023-05-10T02:41:48;12.93;;;10.65;;
59074;SDS011;44860;53.020;6.738;2023-05-10T02:44:15;11.98;;;10.48;;
59074;SDS011;44860;53.020;6.738;2023-05-10T02:46:44;14.90;;;11.35;;
59074;SDS011;44860;53.020;6.738;2023-05-10T02:49:10;13.23;;;11.27;;
59074;SDS011;44860;53.020;6.738;2023-05-10T02:51:37;11.27;;;9.88;;
59074;SDS011;44860;53.020;6.738;2023-05-10T02:54:08;14.05;;;11.60;;
59074;SDS011;44860;53.020;6.738;2023-05-10T02:56:40;14.55;;;11.73;;
59074;SDS011;44860;53.020;6.738;2023-05-10T02:59:12;14.43;;;12.10;;
59074;SDS011;44860;53.020;6.738;2023-05-10T03:01:37;14.35;;;12.10;;
59074;SDS011;44860;53.020;6.738;2023-05-10T03:04:03;14.05;;;11.95;;
59074;SDS011;44860;53.020;6.738;2023-05-10T03:06:29;13.02;;;11.55;;
59074;SDS011;44860;53.020;6.738;2023-05-10T03:08:55;13.55;;;11.80;;
59074;SDS011;44860;53.020;6.738;2023-05-10T03:11:23;13.52;;;11.73;;
59074;SDS011;44860;53.020;6.738;2023-05-10T03:14:01;14.18;;;11.60;;
59074;SDS011;44860;53.020;6.738;2023-05-10T03:16:51;13.15;;;11.52;;
59074;SDS011;44860;53.020;6.738;2023-05-10T03:19:24;13.45;;;11.27;;
59074;SDS011;44860;53.020;6.738;2023-05-10T03:22:12;15.05;;;11.63;;
59074;SDS011;44860;53.020;6.738;2023-05-10T03:24:44;17.05;;;12.68;;
59074;SDS011;44860;53.020;6.738;2023-05-10T03:27:12;14.27;;;11.90;;
59074;SDS011;44860;53.020;6.738;2023-05-10T03:29:39;14.57;;;12.43;;
59074;SDS011;44860;53.020;6.738;2023-05-10T03:32:05;15.10;;;12.35;;
59074;SDS011;44860;53.020;6.738;2023-05-10T03:34:30;16.42;;;13.38;;
59074;SDS011;44860;53.020;6.738;2023-05-10T03:36:56;14.80;;;12.63;;
59074;SDS011;44860;53.020;6.738;2023-05-10T03:39:22;17.08;;;13.20;;
59074;SDS011;44860;53.020;6.738;2023-05-10T03:41:48;16.38;;;14.02;;
59074;SDS011;44860;53.020;6.738;2023-05-10T03:44:16;15.52;;;13.18;;
59074;SDS011;44860;53.020;6.738;2023-05-10T03:46:44;15.98;;;13.25;;
59074;SDS011;44860;53.020;6.738;2023-05-10T03:49:10;17.92;;;14.30;;
59074;SDS011;44860;53.020;6.738;2023-05-10T03:51:36;15.48;;;12.93;;
59074;SDS011;44860;53.020;6.738;2023-05-10T03:54:01;15.25;;;12.90;;
59074;SDS011;44860;53.020;6.738;2023-05-10T03:56:27;14.25;;;12.15;;
59074;SDS011;44860;53.020;6.738;2023-05-10T03:58:53;16.92;;;13.10;;
59074;SDS011;44860;53.020;6.738;2023-05-10T04:01:18;14.07;;;11.93;;
59074;SDS011;44860;53.020;6.738;2023-05-10T04:03:44;14.95;;;11.75;;
59074;SDS011;44860;53.020;6.738;2023-05-10T04:06:09;16.20;;;12.52;;
59074;SDS011;44860;53.020;6.738;2023-05-10T04:08:36;14.57;;;12.98;;
59074;SDS011;44860;53.020;6.738;2023-05-10T04:11:09;12.77;;;11.32;;
59074;SDS011;44860;53.020;6.738;2023-05-10T04:13:36;15.55;;;12.55;;
59074;SDS011;44860;53.020;6.738;2023-05-10T04:16:03;14.48;;;12.27;;
59074;SDS011;44860;53.020;6.738;2023-05-10T04:18:29;12.43;;;10.98;;
59074;SDS011;44860;53.020;6.738;2023-05-10T04:20:55;15.15;;;11.82;;
59074;SDS011;44860;53.020;6.738;2023-05-10T04:23:21;13.50;;;11.32;;
59074;SDS011;44860;53.020;6.738;2023-05-10T04:25:46;14.02;;;11.10;;
59074;SDS011;44860;53.020;6.738;2023-05-10T04:28:12;11.77;;;9.75;;
59074;SDS011;44860;53.020;6.738;2023-05-10T04:30:38;11.98;;;10.77;;
59074;SDS011;44860;53.020;6.738;2023-05-10T04:33:03;11.60;;;10.27;;
59074;SDS011;44860;53.020;6.738;2023-05-10T04:35:29;10.57;;;9.32;;
59074;SDS011;44860;53.020;6.738;2023-05-10T04:37:55;10.13;;;8.85;;
59074;SDS011;44860;53.020;6.738;2023-05-10T04:40:21;10.02;;;8.02;;
59074;SDS011;44860;53.020;6.738;2023-05-10T04:42:46;10.13;;;8.60;;
59074;SDS011;44860;53.020;6.738;2023-05-10T04:45:12;11.32;;;8.80;;
59074;SDS011;44860;53.020;6.738;2023-05-10T04:47:39;10.98;;;9.63;;
59074;SDS011;44860;53.020;6.738;2023-05-10T04:50:06;9.25;;;8.25;;
59074;SDS011;44860;53.020;6.738;2023-05-10T04:52:32;10.00;;;9.00;;
59074;SDS011;44860;53.020;6.738;2023-05-10T04:54:58;9.88;;;8.10;;
59074;SDS011;44860;53.020;6.738;2023-05-10T04:57:23;10.05;;;8.15;;
59074;SDS011;44860;53.020;6.738;2023-05-10T04:59:49;11.23;;;8.75;;
59074;SDS011;44860;53.020;6.738;2023-05-10T05:02:15;8.65;;;7.70;;
59074;SDS011;44860;53.020;6.738;2023-05-10T05:04:40;8.80;;;7.90;;
59074;SDS011;44860;53.020;6.738;2023-05-10T05:07:06;9.60;;;7.55;;
59074;SDS011;44860;53.020;6.738;2023-05-10T05:09:32;8.95;;;7.93;;
59074;SDS011;44860;53.020;6.738;2023-05-10T05:11:57;8.77;;;7.88;;
59074;SDS011;44860;53.020;6.738;2023-05-10T05:14:23;9.10;;;7.82;;
59074;SDS011;44860;53.020;6.738;2023-05-10T05:16:53;8.15;;;7.15;;
59074;SDS011;44860;53.020;6.738;2023-05-10T05:19:18;9.90;;;8.45;;
59074;SDS011;44860;53.020;6.738;2023-05-10T05:21:44;7.95;;;7.15;;
59074;SDS011;44860;53.020;6.738;2023-05-10T05:24:10;9.00;;;7.55;;
59074;SDS011;44860;53.020;6.738;2023-05-10T05:26:37;9.38;;;7.05;;
59074;SDS011;44860;53.020;6.738;2023-05-10T05:29:03;8.00;;;7.20;;
59074;SDS011;44860;53.020;6.738;2023-05-10T05:31:29;7.60;;;6.80;;
59074;SDS011;44860;53.020;6.738;2023-05-10T05:33:55;7.88;;;7.07;;
59074;SDS011;44860;53.020;6.738;2023-05-10T05:36:21;9.98;;;7.57;;
59074;SDS011;44860;53.020;6.738;2023-05-10T05:38:47;7.15;;;6.45;;
59074;SDS011;44860;53.020;6.738;2023-05-10T05:41:12;7.25;;;6.55;;
59074;SDS011;44860;53.020;6.738;2023-05-10T05:43:38;6.53;;;5.93;;
59074;SDS011;44860;53.020;6.738;2023-05-10T05:46:04;6.25;;;5.65;;
59074;SDS011;44860;53.020;6.738;2023-05-10T05:48:30;6.03;;;5.53;;
59074;SDS011;44860;53.020;6.738;2023-05-10T05:50:56;7.13;;;6.38;;
59074;SDS011;44860;53.020;6.738;2023-05-10T05:53:22;6.47;;;5.78;;
59074;SDS011;44860;53.020;6.738;2023-05-10T05:55:55;6.78;;;6.05;;
59074;SDS011;44860;53.020;6.738;2023-05-10T05:58:23;6.15;;;5.55;;
59074;SDS011;44860;53.020;6.738;2023-05-10T06:00:49;5.93;;;5.22;;
59074;SDS011;44860;53.020;6.738;2023-05-10T06:03:16;5.47;;;4.97;;
59074;SDS011;44860;53.020;6.738;2023-05-10T06:05:42;6.78;;;5.28;;
59074;SDS011;44860;53.020;6.738;2023-05-10T06:08:08;6.13;;;5.53;;
59074;SDS011;44860;53.020;6.738;2023-05-10T06:10:34;5.47;;;4.97;;
59074;SDS011;44860;53.020;6.738;2023-05-10T06:13:01;5.43;;;4.82;;
59074;SDS011;44860;53.020;6.738;2023-05-10T06:15:26;5.13;;;4.63;;
59074;SDS011;44860;53.020;6.738;2023-05-10T06:17:52;5.13;;;4.63;;
59074;SDS011;44860;53.020;6.738;2023-05-10T06:20:18;6.60;;;4.75;;
59074;SDS011;44860;53.020;6.738;2023-05-10T06:22:44;5.90;;;4.28;;
59074;SDS011;44860;53.020;6.738;2023-05-10T06:25:09;5.13;;;4.40;;
59074;SDS011;44860;53.020;6.738;2023-05-10T06:27:36;4.70;;;4.20;;
59074;SDS011;44860;53.020;6.738;2023-05-10T06:30:02;4.72;;;4.07;;
59074;SDS011;44860;53.020;6.738;2023-05-10T06:32:28;4.65;;;4.15;;
59074;SDS011;44860;53.020;6.738;2023-05-10T06:34:54;4.30;;;3.90;;
59074;SDS011;44860;53.020;6.738;2023-05-10T06:37:20;4.15;;;3.75;;
59074;SDS011;44860;53.020;6.738;2023-05-10T06:39:45;3.63;;;3.33;;
59074;SDS011;44860;53.020;6.738;2023-05-10T06:42:11;3.10;;;2.80;;
59074;SDS011;44860;53.020;6.738;2023-05-10T06:44:36;2.30;;;2.10;;
59074;SDS011;44860;53.020;6.738;2023-05-10T06:47:02;2.53;;;2.10;;
59074;SDS011;44860;53.020;6.738;2023-05-10T06:49:28;1.90;;;1.80;;
59074;SDS011;44860;53.020;6.738;2023-05-10T06:51:55;1.88;;;1.45;;
59074;SDS011;44860;53.020;6.738;2023-05-10T06:54:20;2.10;;;1.58;;
59074;SDS011;44860;53.020;6.738;2023-05-10T06:56:46;2.72;;;1.85;;
59074;SDS011;44860;53.020;6.738;2023-05-10T06:59:12;1.58;;;1.38;;
59074;SDS011;44860;53.020;6.738;2023-05-10T07:01:38;2.92;;;1.52;;
59074;SDS011;44860;53.020;6.738;2023-05-10T07:04:04;1.40;;;1.30;;
59074;SDS011;44860;53.020;6.738;2023-05-10T07:06:30;1.30;;;1.20;;
59074;SDS011;44860;53.020;6.738;2023-05-10T07:08:56;0.90;;;0.90;;
59074;SDS011;44860;53.020;6.738;2023-05-10T07:11:22;1.88;;;0.80;;
59074;SDS011;44860;53.020;6.738;2023-05-10T07:13:47;1.95;;;0.70;;
59074;SDS011;44860;53.020;6.738;2023-05-10T07:16:13;0.85;;;0.57;;
59074;SDS011;44860;53.020;6.738;2023-05-10T07:18:39;0.60;;;0.60;;
59074;SDS011;44860;53.020;6.738;2023-05-10T07:21:04;1.35;;;0.50;;
59074;SDS011;44860;53.020;6.738;2023-05-10T07:23:30;1.33;;;0.50;;
59074;SDS011;44860;53.020;6.738;2023-05-10T07:25:56;0.73;;;0.50;;
59074;SDS011;44860;53.020;6.738;2023-05-10T07:28:22;0.50;;;0.50;;
59074;SDS011;44860;53.020;6.738;2023-05-10T07:30:49;2.28;;;0.57;;
59074;SDS011;44860;53.020;6.738;2023-05-10T07:33:15;1.17;;;0.40;;
59074;SDS011;44860;53.020;6.738;2023-05-10T07:35:41;0.50;;;0.50;;
59074;SDS011;44860;53.020;6.738;2023-05-10T07:38:07;0.50;;;0.50;;
59074;SDS011;44860;53.020;6.738;2023-05-10T07:40:33;1.05;;;0.52;;
59074;SDS011;44860;53.020;6.738;2023-05-10T07:42:59;0.50;;;0.50;;
59074;SDS011;44860;53.020;6.738;2023-05-10T07:45:27;0.50;;;0.50;;
59074;SDS011;44860;53.020;6.738;2023-05-10T07:47:53;0.57;;;0.52;;
59074;SDS011;44860;53.020;6.738;2023-05-10T07:50:19;1.00;;;0.40;;
59074;SDS011;44860;53.020;6.738;2023-05-10T07:52:46;0.68;;;0.68;;
59074;SDS011;44860;53.020;6.738;2023-05-10T07:55:12;0.52;;;0.52;;
59074;SDS011;44860;53.020;6.738;2023-05-10T07:57:37;0.80;;;0.80;;
59074;SDS011;44860;53.020;6.738;2023-05-10T08:00:04;0.52;;;0.52;;
59074;SDS011;44860;53.020;6.738;2023-05-10T08:02:30;0.77;;;0.77;;
59074;SDS011;44860;53.020;6.738;2023-05-10T08:04:56;1.08;;;1.00;;
59074;SDS011;44860;53.020;6.738;2023-05-10T08:07:22;1.40;;;1.30;;
59074;SDS011;44860;53.020;6.738;2023-05-10T08:09:50;1.95;;;1.30;;
59074;SDS011;44860;53.020;6.738;2023-05-10T08:12:15;2.35;;;1.75;;
59074;SDS011;44860;53.020;6.738;2023-05-10T08:14:41;3.33;;;2.35;;
59074;SDS011;44860;53.020;6.738;2023-05-10T08:17:06;4.20;;;3.17;;
59074;SDS011;44860;53.020;6.738;2023-05-10T08:19:32;4.45;;;3.50;;
59074;SDS011;44860;53.020;6.738;2023-05-10T08:21:58;5.38;;;4.03;;
59074;SDS011;44860;53.020;6.738;2023-05-10T08:24:23;4.88;;;4.43;;
59074;SDS011;44860;53.020;6.738;2023-05-10T08:26:49;5.47;;;4.38;;
59074;SDS011;44860;53.020;6.738;2023-05-10T08:29:15;5.18;;;4.68;;
59074;SDS011;44860;53.020;6.738;2023-05-10T08:31:40;5.00;;;4.20;;
59074;SDS011;44860;53.020;6.738;2023-05-10T08:34:06;4.55;;;4.15;;
59074;SDS011;44860;53.020;6.738;2023-05-10T08:36:32;5.85;;;4.70;;
59074;SDS011;44860;53.020;6.738;2023-05-10T08:38:58;5.00;;;4.50;;
59074;SDS011;44860;53.020;6.738;2023-05-10T08:41:24;4.70;;;4.20;;
59074;SDS011;44860;53.020;6.738;2023-05-10T08:43:51;5.30;;;4.50;;
59074;SDS011;44860;53.020;6.738;2023-05-10T08:46:18;5.20;;;4.70;;
59074;SDS011;44860;53.020;6.738;2023-05-10T08:48:45;5.50;;;4.82;;
59074;SDS011;44860;53.020;6.738;2023-05-10T08:51:13;5.97;;;4.68;;
59074;SDS011;44860;53.020;6.738;2023-05-10T08:53:40;4.78;;;4.38;;
59074;SDS011;44860;53.020;6.738;2023-05-10T08:56:05;4.72;;;4.25;;
59074;SDS011;44860;53.020;6.738;2023-05-10T08:58:31;5.63;;;4.60;;
59074;SDS011;44860;53.020;6.738;2023-05-10T09:00:57;6.75;;;5.15;;
59074;SDS011;44860;53.020;6.738;2023-05-10T09:03:24;6.40;;;4.78;;
59074;SDS011;44860;53.020;6.738;2023-05-10T09:05:50;5.88;;;4.93;;
59074;SDS011;44860;53.020;6.738;2023-05-10T09:08:15;7.55;;;5.18;;
59074;SDS011;44860;53.020;6.738;2023-05-10T09:10:45;7.38;;;5.55;;
59074;SDS011;44860;53.020;6.738;2023-05-10T09:13:13;5.35;;;4.50;;
59074;SDS011;44860;53.020;6.738;2023-05-10T09:15:43;5.65;;;4.90;;
59074;SDS011;44860;53.020;6.738;2023-05-10T09:18:10;6.45;;;5.30;;
59074;SDS011;44860;53.020;6.738;2023-05-10T09:20:36;6.57;;;5.20;;
59074;SDS011;44860;53.020;6.738;2023-05-10T09:23:01;5.95;;;5.22;;
59074;SDS011;44860;53.020;6.738;2023-05-10T09:25:27;6.60;;;5.03;;
59074;SDS011;44860;53.020;6.738;2023-05-10T09:27:53;6.05;;;5.32;;
59074;SDS011;44860;53.020;6.738;2023-05-10T09:32:50;5.95;;;5.35;;
59074;SDS011;44860;53.020;6.738;2023-05-10T09:35:19;7.50;;;4.93;;
59074;SDS011;44860;53.020;6.738;2023-05-10T09:37:48;8.07;;;5.63;;
59074;SDS011;44860;53.020;6.738;2023-05-10T09:40:17;9.27;;;5.03;;
59074;SDS011;44860;53.020;6.738;2023-05-10T09:45:22;6.72;;;5.28;;
59074;SDS011;44860;53.020;6.738;2023-05-10T09:47:49;5.95;;;4.90;;
59074;SDS011;44860;53.020;6.738;2023-05-10T09:50:15;6.90;;;5.50;;
59074;SDS011;44860;53.020;6.738;2023-05-10T09:52:48;7.07;;;4.97;;
59074;SDS011;44860;53.020;6.738;2023-05-10T09:55:16;8.30;;;4.88;;
59074;SDS011;44860;53.020;6.738;2023-05-10T09:57:43;5.28;;;4.78;;
59074;SDS011;44860;53.020;6.738;2023-05-10T10:00:09;6.70;;;4.65;;
59074;SDS011;44860;53.020;6.738;2023-05-10T10:02:35;5.88;;;4.38;;
59074;SDS011;44860;53.020;6.738;2023-05-10T10:05:01;5.10;;;4.60;;
59074;SDS011;44860;53.020;6.738;2023-05-10T10:07:30;6.43;;;4.60;;
59074;SDS011;44860;53.020;6.738;2023-05-10T10:09:57;6.25;;;4.30;;
59074;SDS011;44860;53.020;6.738;2023-05-10T10:12:24;5.03;;;4.20;;
59074;SDS011;44860;53.020;6.738;2023-05-10T10:14:50;5.05;;;4.15;;
59074;SDS011;44860;53.020;6.738;2023-05-10T10:17:17;6.07;;;4.22;;
59074;SDS011;44860;53.020;6.738;2023-05-10T10:19:42;6.10;;;4.30;;
59074;SDS011;44860;53.020;6.738;2023-05-10T10:22:10;5.25;;;4.45;;
59074;SDS011;44860;53.020;6.738;2023-05-10T10:24:37;6.68;;;4.10;;
59074;SDS011;44860;53.020;6.738;2023-05-10T10:27:24;8.93;;;5.00;;
59074;SDS011;44860;53.020;6.738;2023-05-10T10:29:59;5.72;;;4.72;;
59074;SDS011;44860;53.020;6.738;2023-05-10T10:32:42;6.32;;;4.90;;
59074;SDS011;44860;53.020;6.738;2023-05-10T10:35:33;6.65;;;5.32;;
59074;SDS011;44860;53.020;6.738;2023-05-10T10:38:00;7.28;;;5.32;;
59074;SDS011;44860;53.020;6.738;2023-05-10T10:40:33;9.15;;;5.80;;
59074;SDS011;44860;53.020;6.738;2023-05-10T10:48:22;8.35;;;6.40;;
59074;SDS011;44860;53.020;6.738;2023-05-10T10:50:55;5.95;;;5.35;;
59074;SDS011;44860;53.020;6.738;2023-05-10T10:53:23;7.72;;;6.10;;
59074;SDS011;44860;53.020;6.738;2023-05-10T10:55:53;8.93;;;6.00;;
59074;SDS011;44860;53.020;6.738;2023-05-10T10:58:35;7.90;;;6.63;;
59074;SDS011;44860;53.020;6.738;2023-05-10T11:01:15;7.53;;;6.55;;
59074;SDS011;44860;53.020;6.738;2023-05-10T11:06:29;9.57;;;7.47;;
59074;SDS011;44860;53.020;6.738;2023-05-10T11:09:08;9.20;;;7.13;;
59074;SDS011;44860;53.020;6.738;2023-05-10T11:11:37;9.70;;;7.40;;
59074;SDS011;44860;53.020;6.738;2023-05-10T11:14:17;10.30;;;7.97;;
59074;SDS011;44860;53.020;6.738;2023-05-10T11:16:45;9.35;;;6.95;;
59074;SDS011;44860;53.020;6.738;2023-05-10T11:19:11;10.40;;;7.55;;
59074;SDS011;44860;53.020;6.738;2023-05-10T11:21:48;11.18;;;7.55;;
59074;SDS011;44860;53.020;6.738;2023-05-10T11:24:29;9.43;;;7.45;;
59074;SDS011;44860;53.020;6.738;2023-05-10T11:26:55;10.82;;;8.18;;
59074;SDS011;44860;53.020;6.738;2023-05-10T11:29:21;9.88;;;7.53;;
59074;SDS011;44860;53.020;6.738;2023-05-10T11:31:47;9.27;;;7.57;;
59074;SDS011;44860;53.020;6.738;2023-05-10T11:34:27;9.45;;;7.70;;
59074;SDS011;44860;53.020;6.738;2023-05-10T11:36:55;9.20;;;7.47;;
59074;SDS011;44860;53.020;6.738;2023-05-10T11:39:25;11.15;;;8.07;;
59074;SDS011;44860;53.020;6.738;2023-05-10T11:41:52;10.13;;;7.63;;
59074;SDS011;44860;53.020;6.738;2023-05-10T11:44:18;9.35;;;7.30;;
59074;SDS011;44860;53.020;6.738;2023-05-10T11:46:43;11.32;;;6.70;;
59074;SDS011;44860;53.020;6.738;2023-05-10T11:49:09;10.15;;;7.60;;
59074;SDS011;44860;53.020;6.738;2023-05-10T11:51:35;10.63;;;7.35;;
59074;SDS011;44860;53.020;6.738;2023-05-10T11:54:04;12.85;;;7.70;;
59074;SDS011;44860;53.020;6.738;2023-05-10T11:56:32;9.80;;;8.00;;
59074;SDS011;44860;53.020;6.738;2023-05-10T11:58:58;9.75;;;7.10;;
59074;SDS011;44860;53.020;6.738;2023-05-10T12:01:25;7.93;;;6.50;;
59074;SDS011;44860;53.020;6.738;2023-05-10T12:03:52;8.35;;;6.70;;
59074;SDS011;44860;53.020;6.738;2023-05-10T12:06:19;8.20;;;6.22;;
59074;SDS011;44860;53.020;6.738;2023-05-10T12:08:46;9.27;;;6.45;;
59074;SDS011;44860;53.020;6.738;2023-05-10T12:11:13;11.80;;;6.93;;
59074;SDS011;44860;53.020;6.738;2023-05-10T12:13:41;7.93;;;6.70;;
59074;SDS011;44860;53.020;6.738;2023-05-10T12:18:44;9.52;;;6.65;;
59074;SDS011;44860;53.020;6.738;2023-05-10T12:21:13;8.88;;;5.88;;
59074;SDS011;44860;53.020;6.738;2023-05-10T12:23:40;9.40;;;6.78;;
59074;SDS011;44860;53.020;6.738;2023-05-10T12:26:09;9.57;;;6.55;;
59074;SDS011;44860;53.020;6.738;2023-05-10T12:28:35;9.30;;;7.38;;
59074;SDS011;44860;53.020;6.738;2023-05-10T12:31:02;9.82;;;6.80;;
59074;SDS011;44860;53.020;6.738;2023-05-10T12:33:34;8.80;;;6.68;;
59074;SDS011;44860;53.020;6.738;2023-05-10T12:36:03;9.15;;;6.57;;
59074;SDS011;44860;53.020;6.738;2023-05-10T12:38:37;7.80;;;6.43;;
59074;SDS011;44860;53.020;6.738;2023-05-10T12:41:10;9.38;;;7.10;;
59074;SDS011;44860;53.020;6.738;2023-05-10T12:43:36;8.98;;;6.72;;
59074;SDS011;44860;53.020;6.738;2023-05-10T12:46:09;9.93;;;7.40;;
59074;SDS011;44860;53.020;6.738;2023-05-10T12:48:37;10.20;;;7.20;;
59074;SDS011;44860;53.020;6.738;2023-05-10T12:51:04;10.48;;;8.50;;
59074;SDS011;44860;53.020;6.738;2023-05-10T12:53:30;10.35;;;8.02;;
59074;SDS011;44860;53.020;6.738;2023-05-10T12:55:56;9.77;;;8.18;;
59074;SDS011;44860;53.020;6.738;2023-05-10T12:58:22;8.85;;;7.10;;
59074;SDS011;44860;53.020;6.738;2023-05-10T13:00:48;10.10;;;7.70;;
59074;SDS011;44860;53.020;6.738;2023-05-10T13:03:16;9.38;;;6.40;;
59074;SDS011;44860;53.020;6.738;2023-05-10T13:05:42;9.27;;;6.85;;
59074;SDS011;44860;53.020;6.738;2023-05-10T13:08:08;9.65;;;7.40;;
59074;SDS011;44860;53.020;6.738;2023-05-10T13:10:33;10.55;;;7.38;;
59074;SDS011;44860;53.020;6.738;2023-05-10T13:12:59;11.38;;;8.20;;
59074;SDS011;44860;53.020;6.738;2023-05-10T13:15:25;10.27;;;7.38;;
59074;SDS011;44860;53.020;6.738;2023-05-10T13:17:52;9.82;;;7.97;;
59074;SDS011;44860;53.020;6.738;2023-05-10T13:20:18;11.23;;;7.75;;
59074;SDS011;44860;53.020;6.738;2023-05-10T13:22:44;9.40;;;7.35;;
59074;SDS011;44860;53.020;6.738;2023-05-10T13:25:10;10.77;;;8.13;;
59074;SDS011;44860;53.020;6.738;2023-05-10T13:27:37;11.73;;;8.43;;
59074;SDS011;44860;53.020;6.738;2023-05-10T13:30:04;11.70;;;8.32;;
59074;SDS011;44860;53.020;6.738;2023-05-10T13:32:30;12.95;;;8.32;;
59074;SDS011;44860;53.020;6.738;2023-05-10T13:34:56;12.15;;;8.70;;
59074;SDS011;44860;53.020;6.738;2023-05-10T13:37:21;11.88;;;8.45;;
59074;SDS011;44860;53.020;6.738;2023-05-10T13:39:47;9.05;;;6.95;;
59074;SDS011;44860;53.020;6.738;2023-05-10T13:42:13;9.30;;;6.93;;
59074;SDS011;44860;53.020;6.738;2023-05-10T13:44:39;11.60;;;7.68;;
59074;SDS011;44860;53.020;6.738;2023-05-10T13:47:05;9.25;;;7.50;;
59074;SDS011;44860;53.020;6.738;2023-05-10T13:49:31;10.13;;;7.43;;
59074;SDS011;44860;53.020;6.738;2023-05-10T13:51:57;9.48;;;7.43;;
59074;SDS011;44860;53.020;6.738;2023-05-10T13:54:23;9.98;;;7.10;;
59074;SDS011;44860;53.020;6.738;2023-05-10T13:56:49;8.73;;;7.13;;
59074;SDS011;44860;53.020;6.738;2023-05-10T13:59:14;10.35;;;7.55;;
59074;SDS011;44860;53.020;6.738;2023-05-10T14:01:40;10.35;;;7.40;;
59074;SDS011;44860;53.020;6.738;2023-05-10T14:04:07;11.48;;;7.68;;
59074;SDS011;44860;53.020;6.738;2023-05-10T14:06:35;10.15;;;6.72;;
59074;SDS011;44860;53.020;6.738;2023-05-10T14:09:01;10.05;;;7.10;;
59074;SDS011;44860;53.020;6.738;2023-05-10T14:11:28;10.35;;;7.75;;
59074;SDS011;44860;53.020;6.738;2023-05-10T14:13:53;10.05;;;7.07;;
59074;SDS011;44860;53.020;6.738;2023-05-10T14:16:19;10.38;;;7.00;;
59074;SDS011;44860;53.020;6.738;2023-05-10T14:18:45;8.50;;;6.28;;
59074;SDS011;44860;53.020;6.738;2023-05-10T14:21:11;9.82;;;7.20;;
59074;SDS011;44860;53.020;6.738;2023-05-10T14:23:37;11.20;;;7.30;;
59074;SDS011;44860;53.020;6.738;2023-05-10T14:26:03;9.13;;;6.90;;
59074;SDS011;44860;53.020;6.738;2023-05-10T14:28:29;10.43;;;7.78;;
59074;SDS011;44860;53.020;6.738;2023-05-10T14:30:54;11.60;;;7.93;;
59074;SDS011;44860;53.020;6.738;2023-05-10T14:33:20;12.10;;;8.38;;
59074;SDS011;44860;53.020;6.738;2023-05-10T14:35:46;11.55;;;8.00;;
59074;SDS011;44860;53.020;6.738;2023-05-10T14:38:12;10.43;;;7.55;;
59074;SDS011;44860;53.020;6.738;2023-05-10T14:40:38;10.68;;;7.03;;
59074;SDS011;44860;53.020;6.738;2023-05-10T14:43:04;9.60;;;5.82;;
59074;SDS011;44860;53.020;6.738;2023-05-10T14:45:30;8.38;;;6.20;;
59074;SDS011;44860;53.020;6.738;2023-05-10T14:47:56;11.80;;;5.40;;
59074;SDS011;44860;53.020;6.738;2023-05-10T14:50:22;7.78;;;4.20;;
59074;SDS011;44860;53.020;6.738;2023-05-10T14:52:48;6.95;;;4.30;;
59074;SDS011;44860;53.020;6.738;2023-05-10T14:55:14;6.72;;;4.13;;
59074;SDS011;44860;53.020;6.738;2023-05-10T14:57:40;6.00;;;4.38;;
59074;SDS011;44860;53.020;6.738;2023-05-10T15:00:06;6.50;;;4.05;;
59074;SDS011;44860;53.020;6.738;2023-05-10T15:02:32;5.07;;;3.90;;
59074;SDS011;44860;53.020;6.738;2023-05-10T15:04:58;7.75;;;4.15;;
59074;SDS011;44860;53.020;6.738;2023-05-10T15:07:23;5.97;;;4.53;;
59074;SDS011;44860;53.020;6.738;2023-05-10T15:09:52;7.43;;;5.10;;
59074;SDS011;44860;53.020;6.738;2023-05-10T15:12:19;8.70;;;4.57;;
59074;SDS011;44860;53.020;6.738;2023-05-10T15:14:45;5.22;;;3.88;;
59074;SDS011;44860;53.020;6.738;2023-05-10T15:17:10;8.73;;;5.72;;